sensor_id;sensor_type;location;lat;lon;timestamp;pressure;altitude;pressure_sealevel;temperature;humidity
64192;BME280;50497;50.720;-2.084;2023-01-29T00:00:47;103042.28;;;4.22;100.00
64192;BME280;50497;50.720;-2.084;2023-01-29T00:03:16;103041.19;;;4.10;100.00
64192;BME280;50497;50.720;-2.084;2023-01-29T00:06:06;103038.78;;;4.23;100.00
64192;BME280;50497;50.720;-2.084;2023-01-29T00:08:41;103044.94;;;4.22;100.00
64192;BME280;50497;50.720;-2.084;2023-01-29T00:11:08;103046.50;;;4.11;100.00
64192;BME280;50497;50.720;-2.084;2023-01-29T00:13:38;103040.56;;;4.26;100.00
64192;BME280;50497;50.720;-2.084;2023-01-29T00:16:15;103041.31;;;4.17;100.00
64192;BME280;50497;50.720;-2.084;2023-01-29T00:18:55;103054.63;;;4.20;100.00
64192;BME280;50497;50.720;-2.084;2023-01-29T00:21:36;103037.75;;;4.15;100.00
64192;BME280;50497;50.720;-2.084;2023-01-29T00:24:12;103044.03;;;4.20;100.00
64192;BME280;50497;50.720;-2.084;2023-01-29T00:26:58;103018.44;;;4.22;100.00
64192;BME280;50497;50.720;-2.084;2023-01-29T00:29:32;103023.72;;;4.22;100.00
64192;BME280;50497;50.720;-2.084;2023-01-29T00:32:08;103006.81;;;4.14;100.00
64192;BME280;50497;50.720;-2.084;2023-01-29T00:34:33;103023.84;;;4.29;100.00
64192;BME280;50497;50.720;-2.084;2023-01-29T00:37:02;103018.47;;;4.24;100.00
64192;BME280;50497;50.720;-2.084;2023-01-29T00:39:41;103026.38;;;4.22;100.00
64192;BME280;50497;50.720;-2.084;2023-01-29T00:42:14;103021.91;;;4.20;100.00
64192;BME280;50497;50.720;-2.084;2023-01-29T00:45:05;103027.34;;;4.28;100.00
64192;BME280;50497;50.720;-2.084;2023-01-29T00:47:37;103008.63;;;4.15;100.00
64192;BME280;50497;50.720;-2.084;2023-01-29T00:50:10;103002.34;;;4.10;100.00
64192;BME280;50497;50.720;-2.084;2023-01-29T00:52:52;103032.47;;;4.18;100.00
64192;BME280;50497;50.720;-2.084;2023-01-29T00:55:30;103029.88;;;4.21;100.00
64192;BME280;50497;50.720;-2.084;2023-01-29T00:58:00;103000.34;;;3.97;100.00
64192;BME280;50497;50.720;-2.084;2023-01-29T01:00:35;103029.91;;;4.23;100.00
64192;BME280;50497;50.720;-2.084;2023-01-29T01:03:10;103027.28;;;4.24;100.00
64192;BME280;50497;50.720;-2.084;2023-01-29T01:05:41;103021.78;;;4.11;100.00
64192;BME280;50497;50.720;-2.084;2023-01-29T01:08:17;103014.94;;;4.23;100.00
64192;BME280;50497;50.720;-2.084;2023-01-29T01:11:13;103002.34;;;4.10;100.00
64192;BME280;50497;50.720;-2.084;2023-01-29T01:13:42;103020.00;;;4.11;100.00
64192;BME280;50497;50.720;-2.084;2023-01-29T01:16:14;103013.94;;;4.18;100.00
64192;BME280;50497;50.720;-2.084;2023-01-29T01:18:51;103006.06;;;4.23;100.00
64192;BME280;50497;50.720;-2.084;2023-01-29T01:21:35;102997.97;;;4.12;100.00
64192;BME280;50497;50.720;-2.084;2023-01-29T01:24:14;103000.69;;;4.17;100.00
64192;BME280;50497;50.720;-2.084;2023-01-29T01:26:50;102991.84;;;4.18;100.00
64192;BME280;50497;50.720;-2.084;2023-01-29T01:29:26;102999.00;;;4.22;100.00
64192;BME280;50497;50.720;-2.084;2023-01-29T01:32:01;102992.69;;;4.14;100.00
64192;BME280;50497;50.720;-2.084;2023-01-29T01:34:35;102991.81;;;4.16;100.00
64192;BME280;50497;50.720;-2.084;2023-01-29T01:37:00;102994.53;;;4.19;100.00
64192;BME280;50497;50.720;-2.084;2023-01-29T01:39:32;102996.25;;;4.16;100.00
64192;BME280;50497;50.720;-2.084;2023-01-29T01:42:08;102990.06;;;4.15;100.00
64192;BME280;50497;50.720;-2.084;2023-01-29T01:47:34;102998.81;;;4.11;100.00
64192;BME280;50497;50.720;-2.084;2023-01-29T01:50:13;103005.03;;;4.13;100.00
64192;BME280;50497;50.720;-2.084;2023-01-29T01:52:53;102997.97;;;4.12;100.00
64192;BME280;50497;50.720;-2.084;2023-01-29T01:55:39;103012.06;;;4.11;100.00
64192;BME280;50497;50.720;-2.084;2023-01-29T01:58:11;102999.66;;;4.07;100.00
64192;BME280;50497;50.720;-2.084;2023-01-29T02:00:46;103010.31;;;4.13;100.00
64192;BME280;50497;50.720;-2.084;2023-01-29T02:03:21;103003.22;;;4.09;100.00
64192;BME280;50497;50.720;-2.084;2023-01-29T02:06:13;103010.31;;;4.10;100.00
64192;BME280;50497;50.720;-2.084;2023-01-29T02:09:26;103001.44;;;4.10;100.00
64192;BME280;50497;50.720;-2.084;2023-01-29T02:12:12;103007.69;;;4.15;100.00
64192;BME280;50497;50.720;-2.084;2023-01-29T02:14:48;102997.22;;;4.22;100.00
64192;BME280;50497;50.720;-2.084;2023-01-29T02:17:25;102998.97;;;4.20;100.00
64192;BME280;50497;50.720;-2.084;2023-01-29T02:28:53;102989.00;;;4.04;100.00
64192;BME280;50497;50.720;-2.084;2023-01-29T02:31:43;102982.13;;;4.15;100.00
64192;BME280;50497;50.720;-2.084;2023-01-29T02:34:52;102990.78;;;4.06;100.00
64192;BME280;50497;50.720;-2.084;2023-01-29T02:46:20;102971.53;;;4.15;100.00
64192;BME280;50497;50.720;-2.084;2023-01-29T02:48:56;102967.03;;;4.11;100.00
64192;BME280;50497;50.720;-2.084;2023-01-29T02:51:43;102966.06;;;4.06;100.00
64192;BME280;50497;50.720;-2.084;2023-01-29T02:54:54;102967.81;;;4.04;100.00
64192;BME280;50497;50.720;-2.084;2023-01-29T02:57:31;102968.75;;;4.07;100.00
64192;BME280;50497;50.720;-2.084;2023-01-29T03:06:00;102956.97;;;3.88;100.00
64192;BME280;50497;50.720;-2.084;2023-01-29T03:08:44;102962.31;;;3.92;100.00
64192;BME280;50497;50.720;-2.084;2023-01-29T03:11:24;102945.72;;;4.02;100.00
64192;BME280;50497;50.720;-2.084;2023-01-29T03:14:01;102954.56;;;4.04;100.00
64192;BME280;50497;50.720;-2.084;2023-01-29T03:19:32;102947.53;;;4.06;100.00
64192;BME280;50497;50.720;-2.084;2023-01-29T03:22:09;102939.56;;;4.06;100.00
64192;BME280;50497;50.720;-2.084;2023-01-29T03:24:55;102944.97;;;4.12;100.00
64192;BME280;50497;50.720;-2.084;2023-01-29T03:27:55;102937.91;;;4.13;100.00
64192;BME280;50497;50.720;-2.084;2023-01-29T03:30:54;102929.97;;;4.13;100.00
64192;BME280;50497;50.720;-2.084;2023-01-29T03:33:57;102926.47;;;4.14;100.00
64192;BME280;50497;50.720;-2.084;2023-01-29T03:36:58;102927.41;;;4.19;100.00
64192;BME280;50497;50.720;-2.084;2023-01-29T03:39:36;102917.56;;;4.12;100.00
64192;BME280;50497;50.720;-2.084;2023-01-29T03:45:13;102903.41;;;4.10;100.00
64192;BME280;50497;50.720;-2.084;2023-01-29T03:48:00;102888.28;;;4.01;100.00
64192;BME280;50497;50.720;-2.084;2023-01-29T03:51:06;102906.97;;;4.12;100.00
64192;BME280;50497;50.720;-2.084;2023-01-29T03:53:46;102894.59;;;4.09;100.00
64192;BME280;50497;50.720;-2.084;2023-01-29T04:02:02;102909.63;;;4.10;100.00
64192;BME280;50497;50.720;-2.084;2023-01-29T04:04:41;102906.09;;;4.11;100.00
64192;BME280;50497;50.720;-2.084;2023-01-29T04:07:21;102914.03;;;4.11;100.00
64192;BME280;50497;50.720;-2.084;2023-01-29T04:10:29;102912.31;;;4.15;100.00
64192;BME280;50497;50.720;-2.084;2023-01-29T04:13:05;102909.66;;;4.13;100.00
64192;BME280;50497;50.720;-2.084;2023-01-29T04:15:42;102907.78;;;4.06;100.00
64192;BME280;50497;50.720;-2.084;2023-01-29T04:18:14;102890.81;;;3.93;100.00
64192;BME280;50497;50.720;-2.084;2023-01-29T04:20:47;102905.97;;;4.00;100.00
64192;BME280;50497;50.720;-2.084;2023-01-29T04:23:30;102899.03;;;4.10;100.00
64192;BME280;50497;50.720;-2.084;2023-01-29T04:29:04;102907.63;;;3.97;100.00
64192;BME280;50497;50.720;-2.084;2023-01-29T04:40:35;102891.75;;;3.97;100.00
64192;BME280;50497;50.720;-2.084;2023-01-29T04:43:08;102894.47;;;4.01;100.00
64192;BME280;50497;50.720;-2.084;2023-01-29T04:48:51;102884.78;;;4.02;100.00
64192;BME280;50497;50.720;-2.084;2023-01-29T04:51:31;102884.75;;;4.00;100.00
64192;BME280;50497;50.720;-2.084;2023-01-29T04:56:54;102880.34;;;4.01;100.00
64192;BME280;50497;50.720;-2.084;2023-01-29T04:59:30;102876.75;;;3.96;100.00
64192;BME280;50497;50.720;-2.084;2023-01-29T05:02:05;102878.34;;;3.84;100.00
64192;BME280;50497;50.720;-2.084;2023-01-29T05:04:36;102878.50;;;3.97;100.00
64192;BME280;50497;50.720;-2.084;2023-01-29T05:07:06;102884.81;;;4.05;100.00
64192;BME280;50497;50.720;-2.084;2023-01-29T05:09:45;102883.81;;;3.97;100.00
64192;BME280;50497;50.720;-2.084;2023-01-29T05:12:21;102871.41;;;3.93;100.00
64192;BME280;50497;50.720;-2.084;2023-01-29T05:15:05;102884.69;;;3.96;100.00
64192;BME280;50497;50.720;-2.084;2023-01-29T05:17:42;102878.47;;;3.92;100.00
64192;BME280;50497;50.720;-2.084;2023-01-29T05:20:13;102872.31;;;3.95;100.00
64192;BME280;50497;50.720;-2.084;2023-01-29T05:22:45;102860.19;;;4.11;100.00
64192;BME280;50497;50.720;-2.084;2023-01-29T05:25:32;102860.19;;;4.11;100.00
64192;BME280;50497;50.720;-2.084;2023-01-29T05:28:02;102865.50;;;4.12;100.00
64192;BME280;50497;50.720;-2.084;2023-01-29T05:30:57;102866.34;;;4.11;100.00
64192;BME280;50497;50.720;-2.084;2023-01-29T05:33:33;102863.72;;;4.11;100.00
64192;BME280;50497;50.720;-2.084;2023-01-29T05:36:05;102853.13;;;4.13;100.00
64192;BME280;50497;50.720;-2.084;2023-01-29T05:38:39;102847.81;;;4.11;100.00
64192;BME280;50497;50.720;-2.084;2023-01-29T05:41:11;102845.22;;;4.14;100.00
64192;BME280;50497;50.720;-2.084;2023-01-29T05:43:40;102846.09;;;4.16;100.00
64192;BME280;50497;50.720;-2.084;2023-01-29T05:46:10;102842.59;;;4.17;100.00
64192;BME280;50497;50.720;-2.084;2023-01-29T05:48:42;102837.31;;;4.19;100.00
64192;BME280;50497;50.720;-2.084;2023-01-29T05:51:10;102833.78;;;4.20;100.00
64192;BME280;50497;50.720;-2.084;2023-01-29T05:53:44;102825.00;;;4.22;100.00
64192;BME280;50497;50.720;-2.084;2023-01-29T05:56:09;102829.41;;;4.20;100.00
64192;BME280;50497;50.720;-2.084;2023-01-29T05:58:38;102831.16;;;4.21;100.00
64192;BME280;50497;50.720;-2.084;2023-01-29T06:01:15;102825.00;;;4.22;100.00
64192;BME280;50497;50.720;-2.084;2023-01-29T06:03:45;102831.22;;;4.26;100.00
64192;BME280;50497;50.720;-2.084;2023-01-29T06:06:20;102832.09;;;4.26;100.00
64192;BME280;50497;50.720;-2.084;2023-01-29T06:08:57;102823.28;;;4.28;100.00
64192;BME280;50497;50.720;-2.084;2023-01-29T06:11:30;102828.63;;;4.31;100.00
64192;BME280;50497;50.720;-2.084;2023-01-29T06:14:08;102817.97;;;4.26;100.00
64192;BME280;50497;50.720;-2.084;2023-01-29T06:16:45;102827.69;;;4.25;100.00
64192;BME280;50497;50.720;-2.084;2023-01-29T06:19:14;102824.25;;;4.34;100.00
64192;BME280;50497;50.720;-2.084;2023-01-29T06:21:46;102826.91;;;4.34;100.00
64192;BME280;50497;50.720;-2.084;2023-01-29T06:24:23;102819.91;;;4.41;100.00
64192;BME280;50497;50.720;-2.084;2023-01-29T06:26:55;102818.16;;;4.43;100.00
64192;BME280;50497;50.720;-2.084;2023-01-29T06:29:21;102815.47;;;4.40;100.00
64192;BME280;50497;50.720;-2.084;2023-01-29T06:31:49;102817.31;;;4.46;100.00
64192;BME280;50497;50.720;-2.084;2023-01-29T06:34:21;102809.31;;;4.41;100.00
64192;BME280;50497;50.720;-2.084;2023-01-29T06:36:47;102809.31;;;4.41;100.00
64192;BME280;50497;50.720;-2.084;2023-01-29T06:39:25;102819.97;;;4.46;100.00
64192;BME280;50497;50.720;-2.084;2023-01-29T06:41:53;102812.94;;;4.49;100.00
64192;BME280;50497;50.720;-2.084;2023-01-29T06:44:22;102812.91;;;4.46;100.00
64192;BME280;50497;50.720;-2.084;2023-01-29T06:46:50;102808.41;;;4.39;100.00
64192;BME280;50497;50.720;-2.084;2023-01-29T06:49:23;102803.91;;;4.30;100.00
64192;BME280;50497;50.720;-2.084;2023-01-29T06:51:52;102797.88;;;4.43;100.00
64192;BME280;50497;50.720;-2.084;2023-01-29T06:54:25;102795.22;;;4.42;100.00
64192;BME280;50497;50.720;-2.084;2023-01-29T06:56:56;102782.84;;;4.44;100.00
64192;BME280;50497;50.720;-2.084;2023-01-29T06:59:22;102786.34;;;4.43;100.00
64192;BME280;50497;50.720;-2.084;2023-01-29T07:01:53;102786.34;;;4.43;100.00
64192;BME280;50497;50.720;-2.084;2023-01-29T07:04:35;102781.91;;;4.37;100.00
64192;BME280;50497;50.720;-2.084;2023-01-29T07:07:04;102781.00;;;4.35;100.00
64192;BME280;50497;50.720;-2.084;2023-01-29T07:09:39;102787.16;;;4.34;100.00
64192;BME280;50497;50.720;-2.084;2023-01-29T07:12:10;102785.53;;;4.46;100.00
64192;BME280;50497;50.720;-2.084;2023-01-29T07:14:44;102788.13;;;4.41;100.00
64192;BME280;50497;50.720;-2.084;2023-01-29T07:17:17;102785.47;;;4.41;100.00
64192;BME280;50497;50.720;-2.084;2023-01-29T07:19:51;102785.50;;;4.44;100.00
64192;BME280;50497;50.720;-2.084;2023-01-29T07:22:27;102782.84;;;4.44;100.00
64192;BME280;50497;50.720;-2.084;2023-01-29T07:24:56;102787.06;;;4.25;100.00
64192;BME280;50497;50.720;-2.084;2023-01-29T07:27:24;102788.84;;;4.28;100.00
64192;BME280;50497;50.720;-2.084;2023-01-29T07:29:54;102788.00;;;4.33;100.00
64192;BME280;50497;50.720;-2.084;2023-01-29T07:32:22;102767.53;;;4.18;100.00
64192;BME280;50497;50.720;-2.084;2023-01-29T07:34:47;102787.13;;;4.31;100.00
64192;BME280;50497;50.720;-2.084;2023-01-29T07:37:18;102779.19;;;4.34;100.00
64192;BME280;50497;50.720;-2.084;2023-01-29T07:39:44;102786.31;;;4.37;100.00
64192;BME280;50497;50.720;-2.084;2023-01-29T07:42:19;102782.78;;;4.38;100.00
64192;BME280;50497;50.720;-2.084;2023-01-29T07:44:47;102791.53;;;4.31;100.00
64192;BME280;50497;50.720;-2.084;2023-01-29T07:47:17;102790.63;;;4.27;100.00
64192;BME280;50497;50.720;-2.084;2023-01-29T07:49:51;102772.13;;;4.32;100.00
64192;BME280;50497;50.720;-2.084;2023-01-29T07:52:21;102786.41;;;4.48;100.00
64192;BME280;50497;50.720;-2.084;2023-01-29T07:54:47;102761.56;;;4.38;100.00
64192;BME280;50497;50.720;-2.084;2023-01-29T07:57:12;102776.72;;;4.50;100.00
64192;BME280;50497;50.720;-2.084;2023-01-29T07:59:38;102779.34;;;4.48;100.00
64192;BME280;50497;50.720;-2.084;2023-01-29T08:02:05;102775.00;;;4.53;100.00
64192;BME280;50497;50.720;-2.084;2023-01-29T08:04:36;102771.38;;;4.48;100.00
64192;BME280;50497;50.720;-2.084;2023-01-29T08:07:05;102770.63;;;4.58;100.00
64192;BME280;50497;50.720;-2.084;2023-01-29T08:09:31;102774.16;;;4.57;100.00
64192;BME280;50497;50.720;-2.084;2023-01-29T08:12:02;102782.09;;;4.56;100.00
64192;BME280;50497;50.720;-2.084;2023-01-29T08:14:28;102778.69;;;4.69;100.00
64192;BME280;50497;50.720;-2.084;2023-01-29T08:17:00;102770.81;;;4.77;100.00
64192;BME280;50497;50.720;-2.084;2023-01-29T08:19:26;102776.13;;;4.77;100.00
64192;BME280;50497;50.720;-2.084;2023-01-29T08:21:51;102761.94;;;4.76;100.00
64192;BME280;50497;50.720;-2.084;2023-01-29T08:24:20;102760.25;;;4.83;100.00
64192;BME280;50497;50.720;-2.084;2023-01-29T08:26:46;102736.31;;;4.75;100.00
64192;BME280;50497;50.720;-2.084;2023-01-29T08:29:30;102767.41;;;4.90;100.00
64192;BME280;50497;50.720;-2.084;2023-01-29T08:31:57;102762.94;;;4.88;100.00
64192;BME280;50497;50.720;-2.084;2023-01-29T08:34:23;102762.00;;;4.81;100.00
64192;BME280;50497;50.720;-2.084;2023-01-29T08:36:49;102771.81;;;4.93;100.00
64192;BME280;50497;50.720;-2.084;2023-01-29T08:39:14;102771.03;;;5.02;100.00
64192;BME280;50497;50.720;-2.084;2023-01-29T08:41:40;102776.34;;;5.05;100.00
64192;BME280;50497;50.720;-2.084;2023-01-29T08:44:05;102780.75;;;5.03;100.00
64192;BME280;50497;50.720;-2.084;2023-01-29T08:46:31;102771.06;;;5.08;100.00
64192;BME280;50497;50.720;-2.084;2023-01-29T08:49:19;102777.38;;;5.22;100.00
64192;BME280;50497;50.720;-2.084;2023-01-29T08:51:49;102787.16;;;5.29;100.00
64192;BME280;50497;50.720;-2.084;2023-01-29T08:54:26;102788.06;;;5.31;100.00
64192;BME280;50497;50.720;-2.084;2023-01-29T08:56:54;102781.88;;;5.32;100.00
64192;BME280;50497;50.720;-2.084;2023-01-29T08:59:21;102771.38;;;5.48;100.00
64192;BME280;50497;50.720;-2.084;2023-01-29T09:01:47;102785.56;;;5.56;100.00
64192;BME280;50497;50.720;-2.084;2023-01-29T09:04:12;102785.59;;;5.59;100.00
64192;BME280;50497;50.720;-2.084;2023-01-29T09:06:38;102779.44;;;5.66;100.00
64192;BME280;50497;50.720;-2.084;2023-01-29T09:09:04;102780.34;;;5.68;100.00
64192;BME280;50497;50.720;-2.084;2023-01-29T09:11:33;102786.63;;;5.87;100.00
64192;BME280;50497;50.720;-2.084;2023-01-29T09:13:59;102778.75;;;5.98;100.00
64192;BME280;50497;50.720;-2.084;2023-01-29T09:16:25;102751.22;;;5.85;100.00
64192;BME280;50497;50.720;-2.084;2023-01-29T09:18:54;102768.16;;;6.01;100.00
64192;BME280;50497;50.720;-2.084;2023-01-29T09:21:26;102766.44;;;6.19;100.00
64192;BME280;50497;50.720;-2.084;2023-01-29T09:23:51;102765.53;;;6.17;100.00
64192;BME280;50497;50.720;-2.084;2023-01-29T09:26:17;102755.88;;;6.34;100.00
64192;BME280;50497;50.720;-2.084;2023-01-29T09:28:42;102763.84;;;6.33;100.00
64192;BME280;50497;50.720;-2.084;2023-01-29T09:31:12;102759.41;;;6.41;100.00
64192;BME280;50497;50.720;-2.084;2023-01-29T09:33:40;102747.00;;;6.44;100.00
64192;BME280;50497;50.720;-2.084;2023-01-29T09:36:06;102752.34;;;6.57;100.00
64192;BME280;50497;50.720;-2.084;2023-01-29T09:38:32;102746.16;;;6.70;100.00
64192;BME280;50497;50.720;-2.084;2023-01-29T09:43:48;102744.41;;;6.88;100.00
64192;BME280;50497;50.720;-2.084;2023-01-29T09:46:23;102739.97;;;6.96;100.00
64192;BME280;50497;50.720;-2.084;2023-01-29T09:49:07;102732.84;;;6.95;100.00
64192;BME280;50497;50.720;-2.084;2023-01-29T09:51:40;102739.06;;;7.12;100.00
64192;BME280;50497;50.720;-2.084;2023-01-29T09:54:31;102740.81;;;7.16;100.00
64192;BME280;50497;50.720;-2.084;2023-01-29T09:56:57;102739.03;;;7.25;100.00
64192;BME280;50497;50.720;-2.084;2023-01-29T09:59:26;102736.38;;;7.28;100.00
64192;BME280;50497;50.720;-2.084;2023-01-29T10:02:08;102715.09;;;7.32;100.00
64192;BME280;50497;50.720;-2.084;2023-01-29T10:04:44;102730.13;;;7.44;100.00
64192;BME280;50497;50.720;-2.084;2023-01-29T10:10:05;102714.94;;;7.75;100.00
64192;BME280;50497;50.720;-2.084;2023-01-29T10:15:17;102707.56;;;8.28;100.00
64192;BME280;50497;50.720;-2.084;2023-01-29T10:24:23;102693.41;;;8.19;100.00
64192;BME280;50497;50.720;-2.084;2023-01-29T10:26:54;102694.38;;;8.07;100.00
64192;BME280;50497;50.720;-2.084;2023-01-29T10:29:19;102695.16;;;8.18;100.00
64192;BME280;50497;50.720;-2.084;2023-01-29T10:31:51;102684.38;;;8.44;100.00
64192;BME280;50497;50.720;-2.084;2023-01-29T10:34:30;102696.69;;;8.59;100.00
64192;BME280;50497;50.720;-2.084;2023-01-29T10:36:58;102700.22;;;8.64;100.00
64192;BME280;50497;50.720;-2.084;2023-01-29T10:39:25;102693.16;;;8.57;100.00
64192;BME280;50497;50.720;-2.084;2023-01-29T10:50:43;102694.84;;;8.71;100.00
64192;BME280;50497;50.720;-2.084;2023-01-29T10:57:05;102692.13;;;8.78;100.00
64192;BME280;50497;50.720;-2.084;2023-01-29T10:59:43;102702.66;;;8.92;100.00
64192;BME280;50497;50.720;-2.084;2023-01-29T11:02:20;102700.00;;;8.92;100.00
64192;BME280;50497;50.720;-2.084;2023-01-29T11:04:49;102685.63;;;9.05;100.00
64192;BME280;50497;50.720;-2.084;2023-01-29T11:07:17;102685.34;;;9.33;100.00
64192;BME280;50497;50.720;-2.084;2023-01-29T11:10:09;102687.28;;;9.19;100.00
64192;BME280;50497;50.720;-2.084;2023-01-29T11:12:39;102680.31;;;9.02;100.00
64192;BME280;50497;50.720;-2.084;2023-01-29T11:15:18;102692.16;;;8.75;100.00
64192;BME280;50497;50.720;-2.084;2023-01-29T11:18:05;102689.47;;;8.75;100.00
64192;BME280;50497;50.720;-2.084;2023-01-29T11:20:34;102684.16;;;8.74;100.00
64192;BME280;50497;50.720;-2.084;2023-01-29T11:23:18;102681.13;;;9.11;100.00
64192;BME280;50497;50.720;-2.084;2023-01-29T11:25:52;102664.84;;;9.34;100.00
64192;BME280;50497;50.720;-2.084;2023-01-29T11:28:36;102649.44;;;9.56;100.00
64192;BME280;50497;50.720;-2.084;2023-01-29T11:31:02;102679.16;;;9.30;100.00
64192;BME280;50497;50.720;-2.084;2023-01-29T11:33:29;102667.88;;;9.77;100.00
64192;BME280;50497;50.720;-2.084;2023-01-29T11:35:58;102667.78;;;9.85;100.00
64192;BME280;50497;50.720;-2.084;2023-01-29T11:38:28;102675.88;;;9.79;100.00
64192;BME280;50497;50.720;-2.084;2023-01-29T11:41:13;102673.44;;;9.60;100.00
64192;BME280;50497;50.720;-2.084;2023-01-29T11:43:42;102669.88;;;9.63;100.00
64192;BME280;50497;50.720;-2.084;2023-01-29T11:46:13;102668.31;;;9.43;100.00
64192;BME280;50497;50.720;-2.084;2023-01-29T11:48:43;102673.75;;;9.33;100.00
64192;BME280;50497;50.720;-2.084;2023-01-29T11:51:23;102666.81;;;9.16;100.00
64192;BME280;50497;50.720;-2.084;2023-01-29T11:53:59;102658.94;;;9.02;100.00
64192;BME280;50497;50.720;-2.084;2023-01-29T11:56:34;102646.47;;;9.04;100.00
64192;BME280;50497;50.720;-2.084;2023-01-29T11:59:46;102639.09;;;9.28;100.00
64192;BME280;50497;50.720;-2.084;2023-01-29T12:04:59;102639.25;;;9.13;100.00
64192;BME280;50497;50.720;-2.084;2023-01-29T12:07:32;102632.09;;;9.16;100.00
64192;BME280;50497;50.720;-2.084;2023-01-29T12:10:05;102630.38;;;9.11;100.00
64192;BME280;50497;50.720;-2.084;2023-01-29T12:12:35;102611.94;;;8.87;100.00
64192;BME280;50497;50.720;-2.084;2023-01-29T12:15:20;102618.94;;;8.98;100.00
64192;BME280;50497;50.720;-2.084;2023-01-29T12:21:08;102596.69;;;9.00;100.00
64192;BME280;50497;50.720;-2.084;2023-01-29T12:27:00;102587.59;;;9.17;100.00
64192;BME280;50497;50.720;-2.084;2023-01-29T12:29:40;102583.88;;;9.29;100.00
64192;BME280;50497;50.720;-2.084;2023-01-29T12:32:38;102583.03;;;9.27;100.00
64192;BME280;50497;50.720;-2.084;2023-01-29T12:35:28;102586.00;;;9.72;100.00
64192;BME280;50497;50.720;-2.084;2023-01-29T12:38:02;102567.59;;;9.50;100.00
64192;BME280;50497;50.720;-2.084;2023-01-29T12:43:58;102571.78;;;10.24;100.00
64192;BME280;50497;50.720;-2.084;2023-01-29T12:46:36;102563.94;;;10.15;100.00
64192;BME280;50497;50.720;-2.084;2023-01-29T12:49:17;102585.69;;;10.49;100.00
64192;BME280;50497;50.720;-2.084;2023-01-29T12:51:52;102571.72;;;10.32;100.00
64192;BME280;50497;50.720;-2.084;2023-01-29T12:57:25;102575.00;;;10.96;100.00
64192;BME280;50497;50.720;-2.084;2023-01-29T12:59:58;102591.00;;;10.52;100.00
64192;BME280;50497;50.720;-2.084;2023-01-29T13:02:35;102586.94;;;10.27;100.00
64192;BME280;50497;50.720;-2.084;2023-01-29T13:05:22;102590.25;;;9.85;100.00
64192;BME280;50497;50.720;-2.084;2023-01-29T13:07:57;102576.69;;;9.35;100.00
64192;BME280;50497;50.720;-2.084;2023-01-29T13:10:35;102567.84;;;9.30;100.00
64192;BME280;50497;50.720;-2.084;2023-01-29T13:16:18;102531.41;;;9.24;100.00
64192;BME280;50497;50.720;-2.084;2023-01-29T13:19:13;102521.09;;;9.62;100.00
64192;BME280;50497;50.720;-2.084;2023-01-29T13:21:54;102521.66;;;9.83;100.00
64192;BME280;50497;50.720;-2.084;2023-01-29T13:24:23;102536.75;;;9.87;100.00
64192;BME280;50497;50.720;-2.084;2023-01-29T13:26:53;102518.16;;;9.79;100.00
64192;BME280;50497;50.720;-2.084;2023-01-29T13:29:28;102507.94;;;9.50;100.00
64192;BME280;50497;50.720;-2.084;2023-01-29T13:32:09;102517.38;;;9.72;100.00
64192;BME280;50497;50.720;-2.084;2023-01-29T13:34:48;102482.75;;;10.17;100.00
64192;BME280;50497;50.720;-2.084;2023-01-29T13:39:58;102507.59;;;9.73;100.00
64192;BME280;50497;50.720;-2.084;2023-01-29T13:45:01;102468.84;;;9.41;100.00
64192;BME280;50497;50.720;-2.084;2023-01-29T13:47:34;102474.84;;;9.58;100.00
64192;BME280;50497;50.720;-2.084;2023-01-29T13:50:17;102469.81;;;9.93;100.00
64192;BME280;50497;50.720;-2.084;2023-01-29T13:52:55;102461.91;;;9.87;100.00
64192;BME280;50497;50.720;-2.084;2023-01-29T13:55:37;102467.09;;;11.32;100.00
64192;BME280;50497;50.720;-2.084;2023-01-29T13:58:08;102483.53;;;12.29;100.00
64192;BME280;50497;50.720;-2.084;2023-01-29T14:05:43;102504.25;;;11.06;100.00
64192;BME280;50497;50.720;-2.084;2023-01-29T14:13:46;102478.97;;;11.20;100.00
64192;BME280;50497;50.720;-2.084;2023-01-29T14:18:45;102486.88;;;10.39;100.00
64192;BME280;50497;50.720;-2.084;2023-01-29T14:21:20;102474.22;;;10.47;100.00
64192;BME280;50497;50.720;-2.084;2023-01-29T14:29:28;102445.59;;;10.02;100.00
64192;BME280;50497;50.720;-2.084;2023-01-29T14:31:59;102422.75;;;9.83;100.00
64192;BME280;50497;50.720;-2.084;2023-01-29T14:34:48;102449.69;;;9.70;100.00
64192;BME280;50497;50.720;-2.084;2023-01-29T14:37:35;102433.72;;;9.67;100.00
64192;BME280;50497;50.720;-2.084;2023-01-29T14:45:22;102422.97;;;9.70;100.00
64192;BME280;50497;50.720;-2.084;2023-01-29T14:50:41;102409.06;;;10.01;100.00
64192;BME280;50497;50.720;-2.084;2023-01-29T14:53:39;102399.69;;;9.77;100.00
64192;BME280;50497;50.720;-2.084;2023-01-29T14:58:51;102384.25;;;9.41;100.00
64192;BME280;50497;50.720;-2.084;2023-01-29T15:01:38;102383.22;;;9.50;100.00
64192;BME280;50497;50.720;-2.084;2023-01-29T15:06:47;102378.13;;;9.35;100.00
64192;BME280;50497;50.720;-2.084;2023-01-29T15:09:36;102376.34;;;9.34;100.00
64192;BME280;50497;50.720;-2.084;2023-01-29T15:12:27;102372.78;;;9.35;100.00
64192;BME280;50497;50.720;-2.084;2023-01-29T15:15:16;102376.22;;;9.43;100.00
64192;BME280;50497;50.720;-2.084;2023-01-29T15:20:42;102362.09;;;9.36;100.00
64192;BME280;50497;50.720;-2.084;2023-01-29T15:23:42;102379.34;;;9.68;100.00
64192;BME280;50497;50.720;-2.084;2023-01-29T15:26:26;102383.75;;;9.71;100.00
64192;BME280;50497;50.720;-2.084;2023-01-29T15:29:03;102391.22;;;9.52;100.00
64192;BME280;50497;50.720;-2.084;2023-01-29T15:31:37;102367.53;;;9.30;100.00
64192;BME280;50497;50.720;-2.084;2023-01-29T15:34:13;102389.03;;;9.19;100.00
64192;BME280;50497;50.720;-2.084;2023-01-29T15:36:43;102385.53;;;9.16;100.00
64192;BME280;50497;50.720;-2.084;2023-01-29T15:39:20;102391.94;;;9.05;100.00
64192;BME280;50497;50.720;-2.084;2023-01-29T15:42:09;102379.47;;;9.04;100.00
64192;BME280;50497;50.720;-2.084;2023-01-29T15:44:43;102388.28;;;9.10;100.00